Terminal Aerodrome Forecast
Issued by NWS

Home | Current Version | Previous Version | Text Only | Print | Product List | Glossary On
Versions: 1 2 3 4 5 6 7 8 9 10 11 12 13 14 15 16 17
000
FTUS45 KGJT 231120
TAFEGE
TAF
KEGE 231120Z 2312/2412 13006KT P6SM BKN070
     FM231800 26007KT P6SM FEW080 FEW200
     FM240100 30006KT P6SM FEW130 FEW250
     FM240500 00000KT P6SM FEW130 FEW200
      AMD LTD TO CLD VIS AND WIND TIL 231300=

USA.gov is the U.S. government's official web portal to all federal, state and local government web resources and services.